Time;durP1;ratioP1;P1;durP2;ratioP2;P2;SDS_P1;SDS_P2;PMS_P1;PMS_P2;Temp;Humidity;BMP_temperature;BMP_pressure;BME280_temperature;BME280_humidity;BME280_pressure;Samples;Min_cycle;Max_cycle;Signal;HPM_P1;HPM_P2
2021/03/24 00:01:55;;;;;;;29.35;13.68;;;;;;;5.05;76.48;100960.56;5028400;28;20056;-74
2021/03/24 00:04:22;;;;;;;23.52;13.35;;;;;;;5.10;76.38;100972.63;5025698;28;20031;-74
2021/03/24 00:06:47;;;;;;;22.38;14.25;;;;;;;5.09;76.81;100965.53;5032853;28;20056;-73
2021/03/24 00:09:18;;;;;;;26.48;13.63;;;;;;;5.06;77.17;100964.91;5046322;28;20490;-72
2021/03/24 00:11:44;;;;;;;28.77;16.50;;;;;;;5.06;77.52;100951.34;5048113;28;20025;-73
2021/03/24 00:14:10;;;;;;;29.55;16.02;;;;;;;5.07;77.88;100961.16;5034456;28;20366;-73
2021/03/24 00:16:36;;;;;;;45.10;19.15;;;;;;;4.99;78.61;100944.31;5036202;28;20123;-77
2021/03/24 00:19:01;;;;;;;47.80;21.45;;;;;;;5.00;79.23;100935.97;5041632;28;20021;-75
2021/03/24 00:21:29;;;;;;;45.65;20.77;;;;;;;5.10;79.22;100945.53;5031408;28;20040;-75
2021/03/24 00:23:56;;;;;;;43.70;21.13;;;;;;;5.17;79.68;100962.56;5038983;28;20021;-73
2021/03/24 00:26:21;;;;;;;44.88;19.77;;;;;;;5.19;79.57;100949.63;5034380;28;20028;-73
2021/03/24 00:28:46;;;;;;;46.25;20.95;;;;;;;5.21;79.66;100956.50;5034906;28;20509;-74
2021/03/24 00:31:12;;;;;;;37.97;19.83;;;;;;;5.17;79.85;100946.28;5030629;28;20390;-71
2021/03/24 00:33:37;;;;;;;37.50;21.10;;;;;;;5.18;80.29;100953.38;5021494;28;20056;-71
2021/03/24 00:36:03;;;;;;;47.58;22.40;;;;;;;5.20;80.22;100951.31;5043237;28;20445;-72
2021/03/24 00:38:28;;;;;;;48.40;20.92;;;;;;;5.21;80.41;100944.81;5046131;28;20096;-73
2021/03/24 00:40:57;;;;;;;46.63;22.30;;;;;;;5.19;80.75;100944.22;5029722;28;20087;-73
2021/03/24 00:43:23;;;;;;;46.00;22.55;;;;;;;5.18;80.68;100932.56;5046543;28;20343;-77
2021/03/24 00:45:49;;;;;;;47.85;23.65;;;;;;;5.21;80.84;100942.97;5019035;28;20028;-74
2021/03/24 00:48:27;;;;;;;49.22;25.00;;;;;;;5.22;81.16;100943.78;5045739;28;20044;-75
2021/03/24 00:50:53;;;;;;;57.15;25.25;;;;;;;5.21;81.06;100942.97;5046487;28;20040;-73
2021/03/24 00:53:18;;;;;;;62.05;24.90;;;;;;;5.22;81.16;100933.75;5062074;28;20133;-73
2021/03/24 00:55:45;;;;;;;65.03;26.58;;;;;;;5.21;82.15;100944.81;5038620;28;20088;-75
2021/03/24 00:58:11;;;;;;;52.45;24.77;;;;;;;5.24;81.77;100937.09;5039886;28;20060;-75
2021/03/24 01:00:38;;;;;;;46.83;23.65;;;;;;;5.26;81.65;100939.59;5055287;28;20132;-74
2021/03/24 01:03:04;;;;;;;48.78;23.38;;;;;;;5.23;81.60;100929.19;5044167;28;20025;-72
2021/03/24 01:05:30;;;;;;;59.60;24.23;;;;;;;5.23;81.27;100934.59;5035099;28;20500;-71
2021/03/24 01:08:25;;;;;;;52.78;24.50;;;;;;;5.30;81.08;100935.41;5027862;28;20112;-72
2021/03/24 01:10:53;;;;;;;52.50;23.13;;;;;;;5.23;81.25;100932.72;5046088;28;20060;-72
2021/03/24 01:13:19;;;;;;;44.67;21.05;;;;;;;5.23;81.38;100929.19;5021542;28;20072;-72
2021/03/24 01:15:48;;;;;;;60.22;22.58;;;;;;;5.21;80.93;100921.25;5041920;28;20032;-78
2021/03/24 01:18:13;;;;;;;41.45;19.42;;;;;;;5.23;80.63;100924.56;5042080;28;20455;-77
2021/03/24 01:20:41;;;;;;;46.75;22.13;;;;;;;5.21;80.95;100925.84;5038668;28;20030;-76
2021/03/24 01:23:07;;;;;;;49.38;22.65;;;;;;;5.14;80.66;100915.06;5046454;28;20010;-77
2021/03/24 01:25:33;;;;;;;43.25;20.48;;;;;;;5.17;80.47;100913.75;5011258;28;20397;-77
2021/03/24 01:27:59;;;;;;;45.00;20.90;;;;;;;5.14;80.63;100908.78;5033396;28;20441;-77
2021/03/24 01:30:29;;;;;;;33.25;18.58;;;;;;;5.06;80.56;100902.56;5034839;28;20136;-77
2021/03/24 01:32:56;;;;;;;38.25;19.70;;;;;;;5.03;80.84;100904.88;5041637;28;20104;-77
2021/03/24 01:35:22;;;;;;;49.83;22.05;;;;;;;5.03;80.77;100911.13;5042050;28;20024;-77
2021/03/24 01:37:48;;;;;;;44.95;21.23;;;;;;;5.00;80.28;100908.84;5050587;28;20060;-76
2021/03/24 01:40:29;;;;;;;42.05;20.88;;;;;;;5.00;80.42;100908.84;5042245;28;20082;-78
2021/03/24 01:42:59;;;;;;;46.08;23.05;;;;;;;4.98;81.11;100916.38;5046561;28;20033;-77
2021/03/24 01:45:25;;;;;;;56.45;22.67;;;;;;;5.01;81.04;100907.81;5047276;28;20029;-77
2021/03/24 01:47:53;;;;;;;60.83;24.55;;;;;;;5.03;80.78;100908.41;5040769;28;20371;-75
2021/03/24 01:50:28;;;;;;;53.90;24.38;;;;;;;5.03;81.25;100903.00;5043090;28;20021;-78
2021/03/24 01:52:53;;;;;;;50.97;23.95;;;;;;;5.05;81.49;100911.75;5047838;28;20024;-78
2021/03/24 01:55:19;;;;;;;52.45;23.77;;;;;;;5.04;81.46;100901.13;5052782;28;20494;-77
2021/03/24 01:57:45;;;;;;;47.40;20.75;;;;;;;5.00;80.56;100898.00;5030772;28;20037;-79
2021/03/24 02:00:31;;;;;;;34.05;20.02;;;;;;;4.97;80.81;100903.06;5030270;28;20033;-78
2021/03/24 02:02:57;;;;;;;36.33;18.52;;;;;;;4.89;80.68;100890.56;5050593;28;20029;-77
2021/03/24 02:05:22;;;;;;;36.50;19.63;;;;;;;4.85;80.41;100889.38;5032314;28;20433;-79
2021/03/24 02:07:53;;;;;;;35.20;19.25;;;;;;;4.78;80.60;100883.16;5051752;28;20036;-77
2021/03/24 02:10:33;;;;;;;37.53;19.50;;;;;;;4.76;80.53;100880.66;5049931;28;20024;-77
2021/03/24 02:13:28;;;;;;;42.88;21.98;;;;;;;4.78;81.08;100889.38;5066738;28;20033;-78
2021/03/24 02:16:02;;;;;;;48.78;23.98;;;;;;;4.74;80.87;100871.88;5039915;28;20454;-77
2021/03/24 02:18:32;;;;;;;50.15;23.42;;;;;;;4.82;81.64;100879.78;5044992;28;20017;-77
2021/03/24 02:21:06;;;;;;;60.75;26.27;;;;;;;4.87;82.37;100879.13;5069547;28;20024;-77
2021/03/24 02:23:40;;;;;;;60.00;26.70;;;;;;;4.91;82.66;100877.66;5042820;28;20093;-78
2021/03/24 02:26:26;;;;;;;61.00;26.38;;;;;;;4.97;82.70;100876.78;5057320;28;20025;-78
2021/03/24 02:28:55;;;;;;;47.42;23.25;;;;;;;5.07;83.16;100877.13;5037264;28;20089;-76
2021/03/24 02:31:24;;;;;;;51.90;23.33;;;;;;;5.12;82.55;100870.22;5037638;28;20045;-77
2021/03/24 02:33:54;;;;;;;60.50;25.83;;;;;;;5.12;82.26;100872.94;5055391;28;20710;-76
2021/03/24 02:36:22;;;;;;;54.25;25.73;;;;;;;5.06;82.68;100875.44;5050175;28;20025;-77
2021/03/24 02:38:51;;;;;;;53.20;24.92;;;;;;;5.03;82.32;100870.47;5034808;28;20033;-77
2021/03/24 02:41:18;;;;;;;55.67;25.63;;;;;;;4.93;82.40;100864.69;5047992;28;20027;-76
2021/03/24 02:43:44;;;;;;;41.55;21.90;;;;;;;4.98;82.22;100878.44;5033985;28;20036;-76
2021/03/24 02:46:13;;;;;;;41.30;20.17;;;;;;;4.92;81.61;100868.47;5044336;28;20017;-76
2021/03/24 02:48:40;;;;;;;36.33;20.63;;;;;;;4.84;81.46;100876.84;5041322;28;20027;-77
2021/03/24 02:51:12;;;;;;;40.97;18.90;;;;;;;4.74;80.96;100871.06;5048364;28;20032;-76
2021/03/24 02:53:39;;;;;;;43.50;21.25;;;;;;;4.67;81.44;100866.53;5053915;28;20059;-77
2021/03/24 02:56:06;;;;;;;29.40;16.08;;;;;;;4.65;81.21;100874.00;5008867;28;20025;-76
2021/03/24 02:58:32;;;;;;;41.65;18.70;;;;;;;4.61;81.70;100867.38;5051017;28;20037;-77
2021/03/24 03:01:00;;;;;;;38.95;19.90;;;;;;;4.54;81.50;100855.72;5044500;28;20035;-76
2021/03/24 03:03:38;;;;;;;44.00;20.05;;;;;;;4.57;81.39;100860.75;5035645;28;20390;-76
2021/03/24 03:06:05;;;;;;;44.50;20.30;;;;;;;4.55;81.98;100862.81;5047829;28;20028;-75
2021/03/24 03:08:46;;;;;;;37.85;18.83;;;;;;;4.55;81.62;100857.41;5040758;28;20033;-76
2021/03/24 03:13:41;;;;;;;23.67;13.73;;;;;;;4.49;81.49;100850.13;5085335;28;20047;-71
2021/03/24 03:16:16;;;;;;;34.28;17.80;;;;;;;4.51;81.66;100857.00;5080810;28;20032;-71
2021/03/24 03:18:49;;;;;;;32.00;16.13;;;;;;;4.53;81.75;100854.09;5060297;28;20027;-71
2021/03/24 03:21:20;;;;;;;30.70;17.13;;;;;;;4.53;81.52;100843.25;5083143;28;20103;-71
2021/03/24 03:23:47;;;;;;;34.22;16.77;;;;;;;4.57;81.55;100844.50;5060767;28;20394;-70
2021/03/24 03:26:17;;;;;;;42.35;19.55;;;;;;;4.61;81.78;100851.09;5063500;28;20029;-72
2021/03/24 03:28:46;;;;;;;37.47;18.85;;;;;;;4.61;81.71;100845.69;5083908;28;20034;-73
2021/03/24 03:31:15;;;;;;;40.03;19.92;;;;;;;4.60;81.73;100844.06;5080841;28;20028;-72
2021/03/24 03:33:44;;;;;;;50.28;23.48;;;;;;;4.61;82.17;100845.69;5065565;28;20044;-72
2021/03/24 03:36:13;;;;;;;47.55;22.40;;;;;;;4.62;81.73;100844.66;5084782;28;20043;-72
2021/03/24 03:38:40;;;;;;;53.28;24.38;;;;;;;4.64;81.92;100839.84;5073714;28;20073;-71
2021/03/24 03:41:09;;;;;;;44.88;21.88;;;;;;;4.68;81.81;100843.78;5086972;28;20020;-72
2021/03/24 03:43:39;;;;;;;46.65;21.98;;;;;;;4.66;82.54;100832.34;5065679;28;20032;-72
2021/03/24 03:46:06;;;;;;;45.70;21.75;;;;;;;4.66;82.24;100832.34;5087556;28;20489;-72
2021/03/24 03:48:31;;;;;;;55.08;25.60;;;;;;;4.67;82.38;100834.00;5045529;28;20042;-71
2021/03/24 03:51:01;;;;;;;54.65;25.23;;;;;;;4.61;82.64;100829.44;5070210;28;20087;-72
2021/03/24 03:53:48;;;;;;;50.90;24.00;;;;;;;4.64;82.86;100836.31;5058603;28;20923;-72
2021/03/24 03:56:33;;;;;;;51.80;22.80;;;;;;;4.58;82.09;100840.72;5084677;28;20047;-71
2021/03/24 03:59:17;;;;;;;48.88;22.75;;;;;;;4.56;82.76;100837.41;5077926;28;20084;-70
2021/03/24 04:01:52;;;;;;;44.75;23.17;;;;;;;4.50;82.34;100828.25;5083230;28;20098;-71
2021/03/24 04:04:23;;;;;;;32.83;18.00;;;;;;;4.48;81.74;100834.94;5079051;28;20541;-71
2021/03/24 04:07:14;;;;;;;25.73;16.25;;;;;;;4.47;81.88;100825.16;5086820;28;20386;-71
2021/03/24 04:09:40;;;;;;;20.67;13.32;;;;;;;4.44;81.98;100822.84;5082684;28;20027;-71
2021/03/24 04:12:12;;;;;;;39.75;21.05;;;;;;;4.40;81.84;100827.06;5045257;28;20079;-71
2021/03/24 04:14:39;;;;;;;43.17;19.83;;;;;;;4.35;82.50;100828.53;5064093;28;20027;-72
2021/03/24 04:17:08;;;;;;;40.42;19.85;;;;;;;4.34;82.65;100823.34;5058164;28;20028;-72
2021/03/24 04:19:38;;;;;;;22.55;15.00;;;;;;;4.34;82.65;100832.28;5059092;28;20040;-71
2021/03/24 04:22:06;;;;;;;28.58;16.15;;;;;;;4.31;82.29;100824.59;5038179;28;20031;-70
2021/03/24 04:24:39;;;;;;;17.02;10.80;;;;;;;4.31;82.24;100823.78;5035851;28;20032;-69
2021/03/24 04:27:09;;;;;;;11.93;9.25;;;;;;;4.34;82.27;100826.88;5045447;28;20028;-71
2021/03/24 04:29:42;;;;;;;8.95;8.10;;;;;;;4.34;81.94;100818.75;5047714;28;20435;-70
2021/03/24 04:32:09;;;;;;;9.93;8.90;;;;;;;4.30;81.71;100827.50;5062474;28;20028;-72
2021/03/24 04:34:35;;;;;;;8.52;7.93;;;;;;;4.24;81.49;100815.66;5058596;28;20358;-73
2021/03/24 04:37:04;;;;;;;9.13;8.30;;;;;;;4.22;81.37;100819.63;5039812;28;20086;-73
2021/03/24 04:39:37;;;;;;;6.40;6.10;;;;;;;4.16;81.75;100815.91;5063591;28;20360;-73
2021/03/24 04:42:12;;;;;;;6.35;5.95;;;;;;;4.15;81.28;100814.25;5046436;28;20061;-71
2021/03/24 04:44:41;;;;;;;9.18;8.55;;;;;;;4.15;80.84;100809.66;5063227;28;20029;-73
2021/03/24 04:47:30;;;;;;;8.43;7.82;;;;;;;4.24;81.35;100812.97;5046029;28;20021;-72
2021/03/24 04:49:59;;;;;;;9.20;8.50;;;;;;;4.24;81.27;100812.97;5047909;28;20390;-72
2021/03/24 04:52:26;;;;;;;7.80;7.35;;;;;;;4.25;81.04;100803.81;5067016;28;20139;-72
2021/03/24 04:54:54;;;;;;;9.15;8.45;;;;;;;4.28;81.79;100816.91;5045799;28;20068;-72
2021/03/24 04:57:24;;;;;;;9.50;8.60;;;;;;;4.23;80.96;100808.59;5062705;28;20062;-73
2021/03/24 04:59:56;;;;;;;6.63;5.97;;;;;;;4.31;81.40;100811.06;5071150;28;20366;-73
2021/03/24 05:02:33;;;;;;;6.13;5.82;;;;;;;4.32;81.44;100807.31;5063090;28;20528;-74
2021/03/24 05:05:21;;;;;;;8.10;7.50;;;;;;;4.32;81.24;100810.03;5075941;28;20394;-74
2021/03/24 05:08:28;;;;;;;7.97;7.35;;;;;;;4.35;81.39;100809.59;5062448;28;20029;-73
2021/03/24 05:11:00;;;;;;;10.00;9.07;;;;;;;4.39;81.28;100809.16;5066137;28;20078;-73
2021/03/24 05:14:01;;;;;;;9.80;9.00;;;;;;;4.48;81.09;100818.69;5069005;28;20127;-73
2021/03/24 05:16:36;;;;;;;9.77;8.90;;;;;;;4.55;81.04;100819.47;5038381;28;20025;-72
2021/03/24 05:19:02;;;;;;;8.15;7.47;;;;;;;4.62;81.69;100819.44;5051442;28;20029;-73
2021/03/24 05:21:46;;;;;;;8.63;7.57;;;;;;;4.74;81.24;100816.88;5048256;28;20020;-73
2021/03/24 05:24:14;;;;;;;4.78;4.47;;;;;;;4.81;81.33;100812.25;5064860;28;20074;-73
2021/03/24 05:26:46;;;;;;;5.25;4.88;;;;;;;4.87;81.30;100795.13;5056601;28;20024;-74
2021/03/24 05:29:17;;;;;;;3.20;3.00;;;;;;;5.00;81.56;100805.84;5042953;28;20415;-74
2021/03/24 05:31:45;;;;;;;3.35;3.17;;;;;;;5.09;80.90;100792.03;5073009;28;20033;-74
2021/03/24 05:34:17;;;;;;;4.93;4.45;;;;;;;5.24;81.12;100806.09;5076529;28;20533;-74
2021/03/24 05:36:47;;;;;;;8.93;7.10;;;;;;;5.32;80.47;100813.97;5057521;28;20025;-74
2021/03/24 05:39:34;;;;;;;8.63;7.60;;;;;;;5.39;80.71;100806.59;5051502;28;20036;-74
2021/03/24 05:42:32;;;;;;;8.38;7.57;;;;;;;5.45;80.60;100798.59;5065362;28;20020;-73
2021/03/24 05:45:25;;;;;;;8.63;8.02;;;;;;;5.48;80.47;100801.72;5056674;28;20021;-73
2021/03/24 05:48:24;;;;;;;11.15;9.80;;;;;;;5.51;80.35;100809.41;5069839;28;20032;-73
2021/03/24 05:50:59;;;;;;;8.98;8.13;;;;;;;5.54;80.37;100803.53;5061313;28;20107;-73
2021/03/24 05:53:55;;;;;;;7.35;6.65;;;;;;;5.63;80.48;100798.66;5053317;28;20114;-73
2021/03/24 05:56:47;;;;;;;4.47;4.18;;;;;;;5.70;80.38;100804.84;5071278;28;20049;-74
2021/03/24 05:59:41;;;;;;;7.28;5.63;;;;;;;5.77;79.84;100808.31;5029105;28;20159;-74
2021/03/24 06:02:21;;;;;;;5.18;4.72;;;;;;;5.84;79.63;100800.13;5042025;28;20104;-74
2021/03/24 06:04:59;;;;;;;5.55;5.15;;;;;;;5.88;80.05;100797.75;5062931;28;20039;-73
2021/03/24 06:07:33;;;;;;;4.18;3.97;;;;;;;5.95;79.90;100806.66;5068191;28;20394;-74
2021/03/24 06:10:38;;;;;;;2.70;2.60;;;;;;;6.04;79.81;100804.50;5064951;28;20024;-73
2021/03/24 06:13:18;;;;;;;2.03;1.83;;;;;;;6.10;79.61;100803.59;5081791;28;20048;-72
2021/03/24 06:16:02;;;;;;;1.42;1.42;;;;;;;6.21;79.54;100804.75;5086030;28;20120;-71
2021/03/24 06:18:57;;;;;;;3.78;3.10;;;;;;;6.30;79.68;100816.94;5072714;28;20358;-72
2021/03/24 06:21:45;;;;;;;6.93;6.13;;;;;;;6.37;79.50;100816.88;5085249;28;20120;-72
2021/03/24 06:24:52;;;;;;;6.43;6.03;;;;;;;6.45;78.74;100827.41;5050890;28;20995;-73
2021/03/24 06:27:23;;;;;;;9.10;8.20;;;;;;;6.46;78.87;100818.22;5088940;28;20088;-73
2021/03/24 06:30:10;;;;;;;21.40;13.93;;;;;;;6.49;79.01;100827.78;5084087;28;20053;-72
2021/03/24 06:33:02;;;;;;;27.92;16.13;;;;;;;6.53;79.01;100837.16;5088402;28;20042;-73
2021/03/24 06:35:53;;;;;;;30.13;16.83;;;;;;;6.53;79.60;100829.00;5078353;28;20499;-74
2021/03/24 06:38:43;;;;;;;28.40;15.48;;;;;;;6.58;79.56;100837.28;5089600;28;20056;-74
2021/03/24 06:41:33;;;;;;;27.77;15.63;;;;;;;6.60;79.68;100835.16;5070757;28;20035;-73
2021/03/24 06:44:19;;;;;;;27.95;16.50;;;;;;;6.66;79.89;100834.25;5090573;28;20128;-73
2021/03/24 06:47:00;;;;;;;;;;;;;;;6.74;80.24;100833.09;5083329;28;20039;-72
2021/03/24 06:49:58;;;;;;;35.03;16.67;;;;;;;6.75;79.83;100837.47;5067390;28;19919;-73
2021/03/24 06:52:36;;;;;;;33.97;15.90;;;;;;;6.79;80.13;100834.06;5053881;28;20040;-72
2021/03/24 06:55:20;;;;;;;47.10;18.60;;;;;;;6.86;80.10;100841.28;5065269;28;20058;-72
2021/03/24 06:58:13;;;;;;;40.30;17.50;;;;;;;6.94;80.12;100835.53;5072395;28;20096;-72
2021/03/24 07:01:17;;;;;;;41.67;17.33;;;;;;;7.07;79.92;100834.50;5076111;28;20027;-72
2021/03/24 07:03:52;;;;;;;30.92;17.13;;;;;;;7.15;80.68;100824.13;4969446;28;20022;-73
2021/03/24 07:06:29;;;;;;;26.77;15.15;;;;;;;7.29;79.81;100832.88;5077700;28;20031;-72
2021/03/24 07:09:06;;;;;;;30.15;16.45;;;;;;;7.44;79.90;100846.03;5089688;28;20023;-73
2021/03/24 07:12:00;;;;;;;42.97;17.88;;;;;;;7.57;80.27;100838.72;5073271;28;20090;-72
2021/03/24 07:14:34;;;;;;;38.33;18.35;;;;;;;7.64;79.43;100839.44;5085717;28;20047;-73
2021/03/24 07:17:18;;;;;;;27.10;13.85;;;;;;;7.81;79.30;100856.72;5070452;28;20050;-73
2021/03/24 07:20:05;;;;;;;36.67;16.85;;;;;;;7.88;79.51;100855.75;5078005;28;20043;-72
2021/03/24 07:22:49;;;;;;;37.70;16.85;;;;;;;7.99;79.01;100846.78;5077168;28;20020;-73
2021/03/24 07:25:30;;;;;;;27.13;16.02;;;;;;;8.06;78.18;100852.91;5065272;28;20051;-71
2021/03/24 07:28:21;;;;;;;30.45;16.05;;;;;;;8.19;78.74;100852.66;5058986;28;20038;-72
2021/03/24 07:31:17;;;;;;;26.02;16.38;;;;;;;8.25;78.11;100866.38;5080391;28;20024;-73
2021/03/24 07:34:06;;;;;;;;;;;;;;;8.38;78.08;100847.03;5058037;28;20027;-73
2021/03/24 07:36:52;;;;;;;33.55;14.68;;;;;;;8.43;77.74;100849.06;5032948;28;19908;-74
2021/03/24 07:39:48;;;;;;;41.88;17.77;;;;;;;8.51;77.99;100855.00;5084933;28;20020;-72
2021/03/24 07:42:45;;;;;;;38.28;17.10;;;;;;;8.52;76.92;100853.91;5084994;28;20516;-73
2021/03/24 07:45:48;;;;;;;29.20;15.65;;;;;;;8.62;77.48;100849.75;5070813;28;20044;-71
2021/03/24 07:48:29;;;;;;;30.20;15.52;;;;;;;8.80;76.97;100843.25;5066933;28;20024;-73
2021/03/24 07:51:24;;;;;;;29.17;16.33;;;;;;;9.00;77.25;100849.09;5082626;28;20032;-73
2021/03/24 07:54:01;;;;;;;32.28;15.35;;;;;;;9.15;76.67;100853.16;5083784;28;20027;-73
2021/03/24 07:56:46;;;;;;;29.30;15.23;;;;;;;9.35;76.55;100852.69;5085684;28;20042;-74
2021/03/24 07:59:41;;;;;;;45.45;17.77;;;;;;;9.37;75.51;100856.81;5079316;28;20501;-72
2021/03/24 08:02:32;;;;;;;29.10;13.68;;;;;;;9.40;75.27;100863.69;5060863;28;20433;-73
2021/03/24 08:05:16;;;;;;;30.50;15.45;;;;;;;9.31;74.67;100862.44;5058196;28;20438;-73
2021/03/24 08:08:07;;;;;;;21.48;14.15;;;;;;;9.35;75.28;100863.63;5087392;28;20486;-73
2021/03/24 08:10:56;;;;;;;38.35;15.30;;;;;;;9.37;75.50;100866.91;5087237;28;20069;-75
2021/03/24 08:13:40;;;;;;;35.17;16.10;;;;;;;9.45;74.95;100869.25;5084158;28;20040;-75
2021/03/24 08:16:36;;;;;;;38.97;16.55;;;;;;;9.44;75.86;100873.84;5088894;28;20486;-75
2021/03/24 08:19:29;;;;;;;30.05;15.60;;;;;;;9.56;75.78;100878.41;5060359;28;20024;-74
2021/03/24 08:22:19;;;;;;;28.05;15.30;;;;;;;9.72;75.15;100874.84;5082290;28;20102;-77
2021/03/24 08:25:03;;;;;;;27.25;14.07;;;;;;;9.95;75.20;100873.81;5078796;28;20099;-73
2021/03/24 08:27:43;;;;;;;27.27;14.98;;;;;;;10.03;74.30;100882.69;5084342;28;20028;-74
2021/03/24 08:30:15;;;;;;;24.42;15.05;;;;;;;10.14;73.44;100884.47;5085200;28;20051;-74
2021/03/24 08:32:54;;;;;;;31.50;13.77;;;;;;;10.19;74.13;100887.31;5087080;28;20138;-74
2021/03/24 08:35:46;;;;;;;28.27;13.73;;;;;;;10.27;73.10;100883.28;5085024;28;20024;-73
2021/03/24 08:38:14;;;;;;;18.90;11.05;;;;;;;10.36;73.41;100889.19;5087605;28;20134;-74
2021/03/24 08:41:08;;;;;;;31.40;12.93;;;;;;;10.46;73.45;100897.50;5085342;28;20080;-74
2021/03/24 08:43:42;;;;;;;22.42;12.95;;;;;;;10.46;73.17;100883.84;5083550;28;20103;-74
2021/03/24 08:46:16;;;;;;;21.43;11.47;;;;;;;10.55;73.44;100882.31;5093109;28;20405;-74
2021/03/24 08:48:52;;;;;;;20.20;12.32;;;;;;;10.67;72.82;100879.44;5074583;28;20369;-73
2021/03/24 08:51:38;;;;;;;19.38;11.77;;;;;;;10.89;72.67;100895.81;5089678;28;20380;-73
2021/03/24 08:54:12;;;;;;;27.33;12.98;;;;;;;10.97;71.95;100897.31;5084370;28;20241;-73
2021/03/24 08:56:57;;;;;;;30.73;12.00;;;;;;;11.09;71.57;100897.16;5082670;28;20478;-74
2021/03/24 08:59:51;;;;;;;16.95;11.13;;;;;;;11.21;71.03;100900.53;5076314;28;20350;-74
2021/03/24 09:02:42;;;;;;;35.80;13.65;;;;;;;11.18;70.09;100895.59;5079610;28;20077;-74
2021/03/24 09:05:20;;;;;;;18.73;10.60;;;;;;;11.26;71.27;100899.78;5087780;28;20020;-75
2021/03/24 09:07:50;;;;;;;19.83;11.68;;;;;;;11.24;69.96;100897.28;5073365;28;20028;-74
2021/03/24 09:10:44;;;;;;;26.17;13.23;;;;;;;11.29;70.25;100902.81;5067461;28;20020;-75
2021/03/24 09:13:28;;;;;;;30.02;11.60;;;;;;;11.22;70.19;100907.69;5072943;28;20043;-74
2021/03/24 09:16:21;;;;;;;27.70;12.25;;;;;;;11.13;70.09;100898.28;5069097;28;20043;-73
2021/03/24 09:19:24;;;;;;;28.58;12.95;;;;;;;11.00;70.00;100905.81;5054027;28;20093;-74
2021/03/24 09:22:08;;;;;;;32.55;13.57;;;;;;;10.85;70.99;100904.81;5078181;28;20390;-74
2021/03/24 09:24:43;;;;;;;16.92;11.75;;;;;;;10.73;71.38;100897.59;5087997;28;20020;-76
2021/03/24 09:27:37;;;;;;;25.73;12.73;;;;;;;10.72;71.17;100895.09;5087055;28;20046;-74
2021/03/24 09:30:29;;;;;;;23.23;10.30;;;;;;;10.76;71.36;100898.97;5056291;28;20028;-74
2021/03/24 09:33:02;;;;;;;15.98;10.95;;;;;;;10.83;71.29;100899.59;5032370;28;20040;-73
2021/03/24 09:35:28;;;;;;;17.10;10.57;;;;;;;10.88;70.98;100891.47;5067089;28;20078;-75
2021/03/24 09:38:11;;;;;;;19.30;10.50;;;;;;;10.97;70.67;100897.31;5065480;28;20718;-73
2021/03/24 09:40:43;;;;;;;18.85;10.25;;;;;;;11.04;71.29;100897.09;5071430;28;20016;-74
2021/03/24 09:43:24;;;;;;;13.52;9.52;;;;;;;11.19;71.01;100891.78;5081619;28;20049;-75
2021/03/24 09:46:10;;;;;;;21.55;11.68;;;;;;;11.44;70.57;100891.19;5073140;28;20027;-75
2021/03/24 09:48:56;;;;;;;23.65;10.60;;;;;;;11.65;70.22;100894.94;5085306;28;20102;-75
2021/03/24 09:51:29;;;;;;;17.55;11.55;;;;;;;11.78;70.04;100887.34;5082465;28;20519;-76
2021/03/24 09:54:06;;;;;;;19.42;9.85;;;;;;;11.94;69.27;100878.16;5082832;28;20024;-74
2021/03/24 09:56:32;;;;;;;25.58;10.57;;;;;;;12.01;68.76;100881.50;5085319;28;20016;-75
2021/03/24 09:59:24;;;;;;;17.25;9.60;;;;;;;12.09;68.19;100887.56;5072163;28;20358;-75
2021/03/24 10:02:00;;;;;;;14.75;10.02;;;;;;;12.10;68.01;100867.31;5086468;28;20081;-75
2021/03/24 10:04:54;;;;;;;23.55;10.20;;;;;;;12.27;67.65;100867.94;5072048;28;20523;-76
2021/03/24 10:07:23;;;;;;;18.92;9.40;;;;;;;12.32;67.37;100870.69;5086214;28;20032;-76
2021/03/24 10:10:12;;;;;;;19.90;10.00;;;;;;;12.38;67.29;100868.81;5091273;28;20028;-75
2021/03/24 10:12:53;;;;;;;27.08;10.18;;;;;;;12.43;67.20;100876.25;5076521;28;20049;-74
2021/03/24 10:15:48;;;;;;;19.05;9.27;;;;;;;12.46;67.07;100870.22;5090278;28;20024;-76
2021/03/24 10:18:24;;;;;;;19.50;8.80;;;;;;;12.46;66.94;100881.22;5085783;28;20040;-74
2021/03/24 10:20:58;;;;;;;13.75;8.63;;;;;;;12.42;66.84;100875.41;5075642;28;20474;-75
2021/03/24 10:23:29;;;;;;;20.67;9.10;;;;;;;12.46;66.77;100875.72;5090155;28;20020;-73
2021/03/24 10:26:13;;;;;;;19.67;9.18;;;;;;;12.48;67.24;100870.78;5073198;28;20029;-75
2021/03/24 10:28:47;;;;;;;17.02;8.43;;;;;;;12.57;66.57;100882.88;5085613;28;20027;-75
2021/03/24 10:31:28;;;;;;;15.13;8.18;;;;;;;12.67;66.19;100877.44;5094743;28;20020;-74
2021/03/24 10:34:19;;;;;;;19.80;8.63;;;;;;;12.75;65.43;100887.06;5089339;28;20418;-74
2021/03/24 10:36:53;;;;;;;18.98;7.93;;;;;;;12.65;65.81;100878.81;5061527;28;20035;-73
2021/03/24 10:39:22;;;;;;;20.73;7.33;;;;;;;12.58;65.62;100890.84;5074934;28;20432;-71
2021/03/24 10:41:54;;;;;;;11.93;7.35;;;;;;;12.50;65.33;100885.03;5078649;28;20051;-72
2021/03/24 10:44:32;;;;;;;8.82;6.40;;;;;;;12.53;65.44;100876.31;5086911;28;20031;-72
2021/03/24 10:47:16;;;;;;;10.93;6.00;;;;;;;12.54;65.31;100886.16;5084396;28;20024;-74
2021/03/24 10:50:03;;;;;;;10.93;6.13;;;;;;;12.60;65.56;100882.38;5068215;28;20046;-74
2021/03/24 10:52:37;;;;;;;10.95;6.47;;;;;;;12.81;65.73;100876.94;5066036;28;20478;-74
2021/03/24 10:55:16;;;;;;;17.35;7.60;;;;;;;12.99;65.17;100879.16;5085827;28;20047;-75
2021/03/24 10:57:48;;;;;;;13.95;7.10;;;;;;;13.18;64.03;100887.72;5077779;28;20036;-75
2021/03/24 11:00:14;;;;;;;16.33;6.47;;;;;;;13.39;64.34;100877.63;5085712;28;20024;-74
2021/03/24 11:02:46;;;;;;;7.28;5.68;;;;;;;13.67;63.37;100878.16;5078956;28;20083;-74
2021/03/24 11:05:25;;;;;;;9.88;6.50;;;;;;;13.77;62.47;100878.16;5087432;28;20039;-74
2021/03/24 11:07:59;;;;;;;9.52;5.97;;;;;;;13.89;61.50;100882.56;5066573;28;20374;-74
2021/03/24 11:10:40;;;;;;;15.32;7.07;;;;;;;13.94;62.11;100877.03;5061193;28;20032;-75
2021/03/24 11:13:17;;;;;;;13.05;5.43;;;;;;;13.91;61.65;100872.09;5084494;28;20462;-75
2021/03/24 11:15:52;;;;;;;8.32;5.00;;;;;;;13.87;61.15;100874.59;5085602;28;20043;-76
2021/03/24 11:18:24;;;;;;;12.00;5.20;;;;;;;13.73;60.56;100871.56;5054086;28;20025;-75
2021/03/24 11:20:58;;;;;;;14.02;5.47;;;;;;;13.59;59.97;100865.81;5083972;28;20115;-74
2021/03/24 11:23:28;;;;;;;14.80;6.20;;;;;;;13.51;61.09;100860.06;5077725;28;20020;-74
2021/03/24 11:26:04;;;;;;;9.90;4.85;;;;;;;13.54;61.37;100862.25;5083729;28;20050;-74
2021/03/24 11:28:35;;;;;;;10.48;4.35;;;;;;;13.58;60.66;100869.66;5067086;28;20106;-75
2021/03/24 11:31:08;;;;;;;9.23;4.30;;;;;;;13.54;60.07;100867.75;5087663;28;20034;-74
2021/03/24 11:33:42;;;;;;;5.20;4.05;;;;;;;13.49;59.95;100859.50;5091296;28;20012;-75
2021/03/24 11:36:17;;;;;;;9.13;3.38;;;;;;;13.39;59.14;100861.16;5062404;28;20034;-75
2021/03/24 11:39:17;;;;;;;12.13;3.47;;;;;;;13.30;59.19;100862.75;5089964;28;20024;-74
2021/03/24 11:41:44;;;;;;;8.48;2.95;;;;;;;13.20;59.50;100849.00;5072656;28;20044;-74
2021/03/24 11:44:23;;;;;;;5.75;3.03;;;;;;;13.23;59.18;100843.00;5079485;28;20085;-75
2021/03/24 11:46:50;;;;;;;3.50;2.72;;;;;;;13.21;59.15;100853.41;5084167;28;20020;-75
2021/03/24 11:49:24;;;;;;;3.15;2.70;;;;;;;13.16;59.17;100842.44;5065177;28;20028;-75
2021/03/24 11:52:33;;;;;;;4.70;2.92;;;;;;;13.07;59.99;100848.44;5091406;28;20537;-73
2021/03/24 11:55:25;;;;;;;7.53;2.67;;;;;;;12.95;60.04;100838.81;5081536;28;20028;-74
2021/03/24 11:58:25;;;;;;;3.80;3.20;;;;;;;12.97;59.63;100842.94;5099360;28;20036;-74
2021/03/24 12:01:04;;;;;;;6.95;3.08;;;;;;;12.97;60.50;100839.38;5097211;28;20130;-74
2021/03/24 12:03:51;;;;;;;2.65;2.45;;;;;;;13.40;60.38;100846.31;5084627;28;20016;-75
2021/03/24 12:06:47;;;;;;;4.20;2.83;;;;;;;13.89;58.94;100853.13;5085801;28;20552;-75
2021/03/24 12:09:25;;;;;;;5.30;3.17;;;;;;;14.06;57.76;100855.56;5070988;28;20695;-75